sensor_id;sensor_type;location;lat;lon;timestamp;temperature;humidity
516;DHT22;244;48.508;9.052;2023-07-20T00:00:32;22.60;1.00
516;DHT22;244;48.508;9.052;2023-07-20T00:03:11;22.60;1.00
516;DHT22;244;48.508;9.052;2023-07-20T00:05:42;22.60;1.00
516;DHT22;244;48.508;9.052;2023-07-20T00:08:09;22.60;1.00
516;DHT22;244;48.508;9.052;2023-07-20T00:10:36;22.60;1.00
516;DHT22;244;48.508;9.052;2023-07-20T00:13:05;22.60;1.00
516;DHT22;244;48.508;9.052;2023-07-20T00:15:32;22.60;1.00
516;DHT22;244;48.508;9.052;2023-07-20T00:17:58;22.60;1.00
516;DHT22;244;48.508;9.052;2023-07-20T00:20:25;22.60;1.00
516;DHT22;244;48.508;9.052;2023-07-20T00:22:52;22.60;1.00
516;DHT22;244;48.508;9.052;2023-07-20T00:25:20;22.60;1.00
516;DHT22;244;48.508;9.052;2023-07-20T00:27:47;22.50;1.00
516;DHT22;244;48.508;9.052;2023-07-20T00:30:16;22.50;1.00
516;DHT22;244;48.508;9.052;2023-07-20T00:32:44;22.50;1.00
516;DHT22;244;48.508;9.052;2023-07-20T00:35:11;22.40;1.00
516;DHT22;244;48.508;9.052;2023-07-20T00:37:39;22.40;1.00
516;DHT22;244;48.508;9.052;2023-07-20T00:40:07;22.30;1.00
516;DHT22;244;48.508;9.052;2023-07-20T00:42:34;22.30;1.00
516;DHT22;244;48.508;9.052;2023-07-20T00:45:01;22.30;1.00
516;DHT22;244;48.508;9.052;2023-07-20T00:47:30;22.20;1.00
516;DHT22;244;48.508;9.052;2023-07-20T00:49:58;22.10;1.00
516;DHT22;244;48.508;9.052;2023-07-20T00:52:25;22.10;1.00
516;DHT22;244;48.508;9.052;2023-07-20T00:54:54;22.00;1.60
516;DHT22;244;48.508;9.052;2023-07-20T00:57:24;22.00;1.10
516;DHT22;244;48.508;9.052;2023-07-20T00:59:51;21.90;1.10
516;DHT22;244;48.508;9.052;2023-07-20T01:02:18;21.90;1.20
516;DHT22;244;48.508;9.052;2023-07-20T01:04:47;21.80;1.30
516;DHT22;244;48.508;9.052;2023-07-20T01:07:19;21.70;1.40
516;DHT22;244;48.508;9.052;2023-07-20T01:09:54;21.70;2.10
516;DHT22;244;48.508;9.052;2023-07-20T01:12:33;21.60;1.60
516;DHT22;244;48.508;9.052;2023-07-20T01:15:02;21.60;2.30
516;DHT22;244;48.508;9.052;2023-07-20T01:17:29;21.50;1.80
516;DHT22;244;48.508;9.052;2023-07-20T01:19:58;21.50;1.80
516;DHT22;244;48.508;9.052;2023-07-20T01:22:40;21.50;1.90
516;DHT22;244;48.508;9.052;2023-07-20T01:25:24;21.50;2.00
516;DHT22;244;48.508;9.052;2023-07-20T01:28:18;21.40;2.00
516;DHT22;244;48.508;9.052;2023-07-20T01:30:56;21.40;2.80
516;DHT22;244;48.508;9.052;2023-07-20T01:33:28;21.40;2.20
516;DHT22;244;48.508;9.052;2023-07-20T01:35:58;21.30;2.20
516;DHT22;244;48.508;9.052;2023-07-20T01:38:26;21.30;2.20
516;DHT22;244;48.508;9.052;2023-07-20T01:40:53;21.30;2.30
516;DHT22;244;48.508;9.052;2023-07-20T01:43:23;21.20;2.20
516;DHT22;244;48.508;9.052;2023-07-20T01:45:50;21.20;2.40
516;DHT22;244;48.508;9.052;2023-07-20T01:48:17;21.20;2.40
516;DHT22;244;48.508;9.052;2023-07-20T01:50:45;21.20;2.40
516;DHT22;244;48.508;9.052;2023-07-20T01:53:12;21.10;2.40
516;DHT22;244;48.508;9.052;2023-07-20T01:55:39;21.10;2.50
516;DHT22;244;48.508;9.052;2023-07-20T01:58:06;21.00;2.50
516;DHT22;244;48.508;9.052;2023-07-20T02:00:33;21.00;2.70
516;DHT22;244;48.508;9.052;2023-07-20T02:03:00;21.00;2.70
516;DHT22;244;48.508;9.052;2023-07-20T02:05:27;20.90;2.70
516;DHT22;244;48.508;9.052;2023-07-20T02:07:55;20.90;2.80
516;DHT22;244;48.508;9.052;2023-07-20T02:10:22;20.90;2.90
516;DHT22;244;48.508;9.052;2023-07-20T02:12:49;20.90;3.00
516;DHT22;244;48.508;9.052;2023-07-20T02:15:17;20.90;3.10
516;DHT22;244;48.508;9.052;2023-07-20T02:17:45;20.80;3.00
516;DHT22;244;48.508;9.052;2023-07-20T02:20:11;20.80;3.20
516;DHT22;244;48.508;9.052;2023-07-20T02:22:39;20.80;3.20
516;DHT22;244;48.508;9.052;2023-07-20T02:25:09;20.80;3.30
516;DHT22;244;48.508;9.052;2023-07-20T02:27:36;20.70;3.20
516;DHT22;244;48.508;9.052;2023-07-20T02:30:05;20.70;3.20
516;DHT22;244;48.508;9.052;2023-07-20T02:32:32;20.70;3.30
516;DHT22;244;48.508;9.052;2023-07-20T02:34:59;20.60;3.40
516;DHT22;244;48.508;9.052;2023-07-20T02:37:26;20.60;3.50
516;DHT22;244;48.508;9.052;2023-07-20T02:39:53;20.60;3.60
516;DHT22;244;48.508;9.052;2023-07-20T02:42:21;20.60;3.80
516;DHT22;244;48.508;9.052;2023-07-20T02:44:50;20.60;4.50
516;DHT22;244;48.508;9.052;2023-07-20T02:47:16;20.50;3.80
516;DHT22;244;48.508;9.052;2023-07-20T02:49:43;20.50;3.80
516;DHT22;244;48.508;9.052;2023-07-20T02:52:10;20.40;4.40
516;DHT22;244;48.508;9.052;2023-07-20T02:54:37;20.40;3.80
516;DHT22;244;48.508;9.052;2023-07-20T02:57:05;20.40;3.70
516;DHT22;244;48.508;9.052;2023-07-20T02:59:33;20.30;3.70
516;DHT22;244;48.508;9.052;2023-07-20T03:02:00;20.20;3.60
516;DHT22;244;48.508;9.052;2023-07-20T03:04:27;20.20;3.90
516;DHT22;244;48.508;9.052;2023-07-20T03:06:54;20.10;3.90
516;DHT22;244;48.508;9.052;2023-07-20T03:09:21;20.10;4.10
516;DHT22;244;48.508;9.052;2023-07-20T03:11:49;20.00;4.10
516;DHT22;244;48.508;9.052;2023-07-20T03:14:16;20.00;4.30
516;DHT22;244;48.508;9.052;2023-07-20T03:16:44;19.90;4.30
516;DHT22;244;48.508;9.052;2023-07-20T03:19:11;19.90;4.50
516;DHT22;244;48.508;9.052;2023-07-20T03:21:38;19.80;4.60
516;DHT22;244;48.508;9.052;2023-07-20T03:24:06;19.70;4.70
516;DHT22;244;48.508;9.052;2023-07-20T03:26:34;19.70;4.80
516;DHT22;244;48.508;9.052;2023-07-20T03:29:01;19.70;4.80
516;DHT22;244;48.508;9.052;2023-07-20T03:31:28;19.60;4.90
516;DHT22;244;48.508;9.052;2023-07-20T03:33:56;19.60;5.00
516;DHT22;244;48.508;9.052;2023-07-20T03:36:23;19.60;5.40
516;DHT22;244;48.508;9.052;2023-07-20T03:38:50;19.50;5.10
516;DHT22;244;48.508;9.052;2023-07-20T03:41:17;19.50;5.20
516;DHT22;244;48.508;9.052;2023-07-20T03:43:45;19.40;5.20
516;DHT22;244;48.508;9.052;2023-07-20T03:46:13;19.40;5.20
516;DHT22;244;48.508;9.052;2023-07-20T03:48:39;19.40;5.40
516;DHT22;244;48.508;9.052;2023-07-20T03:51:08;19.30;5.40
516;DHT22;244;48.508;9.052;2023-07-20T03:53:35;19.30;5.50
516;DHT22;244;48.508;9.052;2023-07-20T03:56:01;19.20;5.50
516;DHT22;244;48.508;9.052;2023-07-20T03:58:28;19.20;5.60
516;DHT22;244;48.508;9.052;2023-07-20T04:00:57;19.20;5.80
516;DHT22;244;48.508;9.052;2023-07-20T04:03:24;19.20;5.80
516;DHT22;244;48.508;9.052;2023-07-20T04:05:53;19.20;5.90
516;DHT22;244;48.508;9.052;2023-07-20T04:08:22;19.20;5.90
516;DHT22;244;48.508;9.052;2023-07-20T04:10:49;19.20;5.90
516;DHT22;244;48.508;9.052;2023-07-20T04:13:16;19.20;6.50
516;DHT22;244;48.508;9.052;2023-07-20T04:15:43;19.20;5.90
516;DHT22;244;48.508;9.052;2023-07-20T04:18:10;19.20;5.90
516;DHT22;244;48.508;9.052;2023-07-20T04:20:37;19.20;6.00
516;DHT22;244;48.508;9.052;2023-07-20T04:23:03;19.20;6.00
516;DHT22;244;48.508;9.052;2023-07-20T04:25:32;19.20;6.00
516;DHT22;244;48.508;9.052;2023-07-20T04:28:05;19.20;6.00
516;DHT22;244;48.508;9.052;2023-07-20T04:30:34;19.20;6.10
516;DHT22;244;48.508;9.052;2023-07-20T04:33:01;19.10;6.00
516;DHT22;244;48.508;9.052;2023-07-20T04:35:48;19.10;6.10
516;DHT22;244;48.508;9.052;2023-07-20T04:38:15;19.10;6.20
516;DHT22;244;48.508;9.052;2023-07-20T04:40:44;19.10;6.20
516;DHT22;244;48.508;9.052;2023-07-20T04:43:11;19.10;6.30
516;DHT22;244;48.508;9.052;2023-07-20T04:45:38;19.20;7.00
516;DHT22;244;48.508;9.052;2023-07-20T04:48:09;19.20;6.50
516;DHT22;244;48.508;9.052;2023-07-20T04:50:37;19.20;6.50
516;DHT22;244;48.508;9.052;2023-07-20T04:53:04;19.20;6.50
516;DHT22;244;48.508;9.052;2023-07-20T04:55:31;19.20;6.50
516;DHT22;244;48.508;9.052;2023-07-20T04:58:00;19.30;6.60
516;DHT22;244;48.508;9.052;2023-07-20T05:00:27;19.30;6.60
516;DHT22;244;48.508;9.052;2023-07-20T05:02:54;19.30;6.60
516;DHT22;244;48.508;9.052;2023-07-20T05:05:21;19.30;6.60
516;DHT22;244;48.508;9.052;2023-07-20T05:07:48;19.30;6.60
516;DHT22;244;48.508;9.052;2023-07-20T05:10:16;19.40;6.70
516;DHT22;244;48.508;9.052;2023-07-20T05:12:43;19.40;6.70
516;DHT22;244;48.508;9.052;2023-07-20T05:15:11;19.50;6.70
516;DHT22;244;48.508;9.052;2023-07-20T05:17:38;19.50;7.20
516;DHT22;244;48.508;9.052;2023-07-20T05:20:06;19.60;6.50
516;DHT22;244;48.508;9.052;2023-07-20T05:22:35;19.70;6.50
516;DHT22;244;48.508;9.052;2023-07-20T05:25:06;19.70;6.50
516;DHT22;244;48.508;9.052;2023-07-20T05:27:33;19.80;6.50
516;DHT22;244;48.508;9.052;2023-07-20T05:30:00;19.90;6.30
516;DHT22;244;48.508;9.052;2023-07-20T05:32:28;20.00;6.30
516;DHT22;244;48.508;9.052;2023-07-20T05:34:55;20.10;6.30
516;DHT22;244;48.508;9.052;2023-07-20T05:37:22;20.20;6.20
516;DHT22;244;48.508;9.052;2023-07-20T05:39:49;20.20;6.10
516;DHT22;244;48.508;9.052;2023-07-20T05:42:17;20.30;6.10
516;DHT22;244;48.508;9.052;2023-07-20T05:44:43;20.40;6.00
516;DHT22;244;48.508;9.052;2023-07-20T05:47:12;20.40;6.00
516;DHT22;244;48.508;9.052;2023-07-20T05:49:41;20.50;6.60
516;DHT22;244;48.508;9.052;2023-07-20T05:52:08;20.60;5.90
516;DHT22;244;48.508;9.052;2023-07-20T05:54:34;20.60;5.90
516;DHT22;244;48.508;9.052;2023-07-20T05:57:01;20.70;6.40
516;DHT22;244;48.508;9.052;2023-07-20T05:59:28;20.70;5.70
516;DHT22;244;48.508;9.052;2023-07-20T06:01:56;20.80;6.30
516;DHT22;244;48.508;9.052;2023-07-20T06:04:23;20.80;5.60
516;DHT22;244;48.508;9.052;2023-07-20T06:06:51;20.90;5.50
516;DHT22;244;48.508;9.052;2023-07-20T06:09:21;20.90;6.20
516;DHT22;244;48.508;9.052;2023-07-20T06:11:48;21.00;5.50
516;DHT22;244;48.508;9.052;2023-07-20T06:14:15;21.10;6.10
516;DHT22;244;48.508;9.052;2023-07-20T06:16:42;21.20;6.00
516;DHT22;244;48.508;9.052;2023-07-20T06:19:08;21.30;5.30
516;DHT22;244;48.508;9.052;2023-07-20T06:21:36;21.30;5.20
516;DHT22;244;48.508;9.052;2023-07-20T06:24:05;21.40;5.80
516;DHT22;244;48.508;9.052;2023-07-20T06:26:32;21.40;5.60
516;DHT22;244;48.508;9.052;2023-07-20T06:29:04;21.40;5.50
516;DHT22;244;48.508;9.052;2023-07-20T06:31:31;21.50;4.90
516;DHT22;244;48.508;9.052;2023-07-20T06:33:58;21.50;4.80
516;DHT22;244;48.508;9.052;2023-07-20T06:36:26;21.60;4.60
516;DHT22;244;48.508;9.052;2023-07-20T06:38:53;21.60;5.10
516;DHT22;244;48.508;9.052;2023-07-20T06:41:22;21.70;4.60
516;DHT22;244;48.508;9.052;2023-07-20T06:43:49;21.70;5.30
516;DHT22;244;48.508;9.052;2023-07-20T06:46:18;21.70;4.60
516;DHT22;244;48.508;9.052;2023-07-20T06:48:44;21.80;5.30
516;DHT22;244;48.508;9.052;2023-07-20T06:51:11;21.90;5.40
516;DHT22;244;48.508;9.052;2023-07-20T06:53:38;22.00;4.80
516;DHT22;244;48.508;9.052;2023-07-20T06:56:05;22.00;4.50
516;DHT22;244;48.508;9.052;2023-07-20T06:58:33;22.10;4.40
516;DHT22;244;48.508;9.052;2023-07-20T07:01:04;22.20;4.30
516;DHT22;244;48.508;9.052;2023-07-20T07:03:32;22.30;4.10
516;DHT22;244;48.508;9.052;2023-07-20T07:05:58;22.40;4.10
516;DHT22;244;48.508;9.052;2023-07-20T07:08:25;22.50;4.00
516;DHT22;244;48.508;9.052;2023-07-20T07:10:52;22.60;3.80
516;DHT22;244;48.508;9.052;2023-07-20T07:13:19;22.60;3.60
516;DHT22;244;48.508;9.052;2023-07-20T07:15:47;22.70;3.40
516;DHT22;244;48.508;9.052;2023-07-20T07:18:14;22.80;3.90
516;DHT22;244;48.508;9.052;2023-07-20T07:20:41;22.90;3.20
516;DHT22;244;48.508;9.052;2023-07-20T07:23:08;23.00;3.50
516;DHT22;244;48.508;9.052;2023-07-20T07:25:35;23.00;3.70
516;DHT22;244;48.508;9.052;2023-07-20T07:28:02;23.10;3.00
516;DHT22;244;48.508;9.052;2023-07-20T07:30:28;23.20;2.90
516;DHT22;244;48.508;9.052;2023-07-20T07:32:57;23.20;3.40
516;DHT22;244;48.508;9.052;2023-07-20T07:35:24;23.30;2.80
516;DHT22;244;48.508;9.052;2023-07-20T07:37:50;23.40;2.70
516;DHT22;244;48.508;9.052;2023-07-20T07:40:17;23.50;2.60
516;DHT22;244;48.508;9.052;2023-07-20T07:42:44;23.50;2.50
516;DHT22;244;48.508;9.052;2023-07-20T07:45:11;23.60;2.40
516;DHT22;244;48.508;9.052;2023-07-20T07:47:39;23.60;2.30
516;DHT22;244;48.508;9.052;2023-07-20T07:50:08;23.60;2.20
516;DHT22;244;48.508;9.052;2023-07-20T07:52:35;23.60;2.20
516;DHT22;244;48.508;9.052;2023-07-20T07:55:02;23.60;2.20
516;DHT22;244;48.508;9.052;2023-07-20T07:57:29;23.60;2.10
516;DHT22;244;48.508;9.052;2023-07-20T07:59:56;23.60;2.10
516;DHT22;244;48.508;9.052;2023-07-20T08:02:23;23.70;2.00
516;DHT22;244;48.508;9.052;2023-07-20T08:04:50;23.80;1.90
516;DHT22;244;48.508;9.052;2023-07-20T08:07:19;23.80;1.70
516;DHT22;244;48.508;9.052;2023-07-20T08:09:46;23.90;1.80
516;DHT22;244;48.508;9.052;2023-07-20T08:12:12;23.90;1.60
516;DHT22;244;48.508;9.052;2023-07-20T08:14:43;23.90;1.50
516;DHT22;244;48.508;9.052;2023-07-20T08:17:10;23.90;1.40
516;DHT22;244;48.508;9.052;2023-07-20T08:19:37;23.80;1.40
516;DHT22;244;48.508;9.052;2023-07-20T08:22:07;23.80;1.20
516;DHT22;244;48.508;9.052;2023-07-20T08:24:39;23.80;1.10
516;DHT22;244;48.508;9.052;2023-07-20T08:27:06;23.80;1.10
516;DHT22;244;48.508;9.052;2023-07-20T08:29:34;23.90;1.10
516;DHT22;244;48.508;9.052;2023-07-20T08:32:00;24.00;1.00
516;DHT22;244;48.508;9.052;2023-07-20T08:34:27;23.90;1.60
516;DHT22;244;48.508;9.052;2023-07-20T08:36:54;23.90;1.00
516;DHT22;244;48.508;9.052;2023-07-20T08:39:21;24.00;1.00
516;DHT22;244;48.508;9.052;2023-07-20T08:41:51;24.10;1.00
516;DHT22;244;48.508;9.052;2023-07-20T08:44:18;24.10;1.00
516;DHT22;244;48.508;9.052;2023-07-20T08:46:47;24.10;1.40
516;DHT22;244;48.508;9.052;2023-07-20T08:49:16;24.20;1.00
516;DHT22;244;48.508;9.052;2023-07-20T08:51:46;24.30;1.00
516;DHT22;244;48.508;9.052;2023-07-20T08:54:13;24.40;1.20
516;DHT22;244;48.508;9.052;2023-07-20T08:56:41;24.50;1.00
516;DHT22;244;48.508;9.052;2023-07-20T08:59:09;24.50;1.00
516;DHT22;244;48.508;9.052;2023-07-20T09:01:36;24.50;1.00
516;DHT22;244;48.508;9.052;2023-07-20T09:04:06;24.50;1.00
516;DHT22;244;48.508;9.052;2023-07-20T09:06:33;24.50;1.00
516;DHT22;244;48.508;9.052;2023-07-20T09:09:00;24.60;1.00
516;DHT22;244;48.508;9.052;2023-07-20T09:11:27;24.60;1.00
516;DHT22;244;48.508;9.052;2023-07-20T09:14:04;24.60;1.00
516;DHT22;244;48.508;9.052;2023-07-20T09:16:33;24.60;1.00
516;DHT22;244;48.508;9.052;2023-07-20T09:19:14;24.50;1.00
516;DHT22;244;48.508;9.052;2023-07-20T09:21:44;24.60;1.00
516;DHT22;244;48.508;9.052;2023-07-20T09:24:11;24.60;1.00
516;DHT22;244;48.508;9.052;2023-07-20T09:26:41;24.70;1.00
516;DHT22;244;48.508;9.052;2023-07-20T09:29:08;24.90;1.00
516;DHT22;244;48.508;9.052;2023-07-20T09:31:37;24.90;1.00
516;DHT22;244;48.508;9.052;2023-07-20T09:34:05;24.90;1.00
516;DHT22;244;48.508;9.052;2023-07-20T09:36:33;24.90;1.00
516;DHT22;244;48.508;9.052;2023-07-20T09:39:00;24.90;1.00
516;DHT22;244;48.508;9.052;2023-07-20T09:41:27;24.90;1.00
516;DHT22;244;48.508;9.052;2023-07-20T09:43:54;24.90;1.00
516;DHT22;244;48.508;9.052;2023-07-20T09:46:22;24.80;1.00
516;DHT22;244;48.508;9.052;2023-07-20T09:48:53;24.70;1.00
516;DHT22;244;48.508;9.052;2023-07-20T09:51:22;24.60;1.00
516;DHT22;244;48.508;9.052;2023-07-20T09:53:49;24.50;1.00
516;DHT22;244;48.508;9.052;2023-07-20T09:56:21;24.50;1.00
516;DHT22;244;48.508;9.052;2023-07-20T09:58:49;24.50;1.00
516;DHT22;244;48.508;9.052;2023-07-20T10:01:19;24.60;1.00
516;DHT22;244;48.508;9.052;2023-07-20T10:03:47;24.70;1.00
516;DHT22;244;48.508;9.052;2023-07-20T10:06:20;24.80;1.00
516;DHT22;244;48.508;9.052;2023-07-20T10:08:52;24.90;1.00
516;DHT22;244;48.508;9.052;2023-07-20T10:11:22;25.00;1.00
516;DHT22;244;48.508;9.052;2023-07-20T10:13:51;25.00;1.00
516;DHT22;244;48.508;9.052;2023-07-20T10:16:24;25.10;1.00
516;DHT22;244;48.508;9.052;2023-07-20T10:18:58;25.10;1.00
516;DHT22;244;48.508;9.052;2023-07-20T10:21:29;25.20;1.00
516;DHT22;244;48.508;9.052;2023-07-20T10:23:57;25.30;1.00
516;DHT22;244;48.508;9.052;2023-07-20T10:26:24;25.30;1.00
516;DHT22;244;48.508;9.052;2023-07-20T10:28:51;25.30;1.00
516;DHT22;244;48.508;9.052;2023-07-20T10:31:18;25.30;1.00
516;DHT22;244;48.508;9.052;2023-07-20T10:33:46;25.30;1.00
516;DHT22;244;48.508;9.052;2023-07-20T10:36:13;25.30;1.00
516;DHT22;244;48.508;9.052;2023-07-20T10:38:42;25.40;1.00
516;DHT22;244;48.508;9.052;2023-07-20T10:41:17;25.50;1.00
516;DHT22;244;48.508;9.052;2023-07-20T10:43:45;25.60;1.00
516;DHT22;244;48.508;9.052;2023-07-20T10:46:12;25.70;1.00
516;DHT22;244;48.508;9.052;2023-07-20T10:49:00;25.90;1.00
516;DHT22;244;48.508;9.052;2023-07-20T10:51:28;26.00;1.00
516;DHT22;244;48.508;9.052;2023-07-20T10:53:56;26.20;1.00
516;DHT22;244;48.508;9.052;2023-07-20T10:56:26;26.30;1.00
516;DHT22;244;48.508;9.052;2023-07-20T10:58:58;26.40;1.00
516;DHT22;244;48.508;9.052;2023-07-20T11:01:28;26.50;1.00
516;DHT22;244;48.508;9.052;2023-07-20T11:03:58;26.40;1.00
516;DHT22;244;48.508;9.052;2023-07-20T11:06:30;26.30;1.00
516;DHT22;244;48.508;9.052;2023-07-20T11:09:09;26.20;1.00
516;DHT22;244;48.508;9.052;2023-07-20T11:11:41;26.30;1.00
516;DHT22;244;48.508;9.052;2023-07-20T11:14:10;26.30;1.00
516;DHT22;244;48.508;9.052;2023-07-20T11:16:41;26.30;1.00
516;DHT22;244;48.508;9.052;2023-07-20T11:19:16;26.40;1.00
516;DHT22;244;48.508;9.052;2023-07-20T11:21:45;26.40;1.00
516;DHT22;244;48.508;9.052;2023-07-20T11:24:14;26.40;1.00
516;DHT22;244;48.508;9.052;2023-07-20T11:26:44;26.40;1.00
516;DHT22;244;48.508;9.052;2023-07-20T11:29:12;26.50;1.00
516;DHT22;244;48.508;9.052;2023-07-20T11:31:40;26.60;1.00
516;DHT22;244;48.508;9.052;2023-07-20T11:34:09;26.70;1.00
516;DHT22;244;48.508;9.052;2023-07-20T11:36:36;26.80;1.00
516;DHT22;244;48.508;9.052;2023-07-20T11:39:03;26.90;1.00
516;DHT22;244;48.508;9.052;2023-07-20T11:41:32;26.90;1.00
516;DHT22;244;48.508;9.052;2023-07-20T11:43:59;27.00;1.00
516;DHT22;244;48.508;9.052;2023-07-20T11:46:27;27.00;1.00
516;DHT22;244;48.508;9.052;2023-07-20T11:48:58;27.00;1.00
516;DHT22;244;48.508;9.052;2023-07-20T11:51:27;27.00;1.00
516;DHT22;244;48.508;9.052;2023-07-20T11:53:54;27.10;1.00
516;DHT22;244;48.508;9.052;2023-07-20T11:56:23;27.30;1.00
516;DHT22;244;48.508;9.052;2023-07-20T11:58:55;27.50;1.00
516;DHT22;244;48.508;9.052;2023-07-20T12:01:24;27.70;1.00
516;DHT22;244;48.508;9.052;2023-07-20T12:03:55;27.80;1.00
516;DHT22;244;48.508;9.052;2023-07-20T12:06:23;27.90;1.00
516;DHT22;244;48.508;9.052;2023-07-20T12:08:52;27.90;1.00
516;DHT22;244;48.508;9.052;2023-07-20T12:11:31;27.90;1.00
516;DHT22;244;48.508;9.052;2023-07-20T12:14:00;27.90;1.00
516;DHT22;244;48.508;9.052;2023-07-20T12:16:28;27.90;1.00
516;DHT22;244;48.508;9.052;2023-07-20T12:19:05;28.00;1.00
516;DHT22;244;48.508;9.052;2023-07-20T12:21:35;27.90;1.00
516;DHT22;244;48.508;9.052;2023-07-20T12:24:03;27.80;1.00
516;DHT22;244;48.508;9.052;2023-07-20T12:26:31;27.70;1.00
516;DHT22;244;48.508;9.052;2023-07-20T12:29:03;27.70;1.00
516;DHT22;244;48.508;9.052;2023-07-20T12:31:33;27.70;1.00
516;DHT22;244;48.508;9.052;2023-07-20T12:34:00;27.80;1.00
516;DHT22;244;48.508;9.052;2023-07-20T12:36:27;27.80;1.00
516;DHT22;244;48.508;9.052;2023-07-20T12:38:54;28.00;1.00
516;DHT22;244;48.508;9.052;2023-07-20T12:41:20;28.20;1.00
516;DHT22;244;48.508;9.052;2023-07-20T12:43:47;28.40;1.00
516;DHT22;244;48.508;9.052;2023-07-20T12:46:16;28.40;1.00
516;DHT22;244;48.508;9.052;2023-07-20T12:48:43;28.50;1.00
516;DHT22;244;48.508;9.052;2023-07-20T12:51:11;28.60;1.00
516;DHT22;244;48.508;9.052;2023-07-20T12:53:38;28.70;1.00
516;DHT22;244;48.508;9.052;2023-07-20T12:56:05;28.80;1.00
516;DHT22;244;48.508;9.052;2023-07-20T12:58:32;28.90;1.00
516;DHT22;244;48.508;9.052;2023-07-20T13:00:59;28.90;1.00
516;DHT22;244;48.508;9.052;2023-07-20T13:03:28;28.90;1.00
516;DHT22;244;48.508;9.052;2023-07-20T13:05:55;28.70;1.00
516;DHT22;244;48.508;9.052;2023-07-20T13:08:23;28.70;1.00
516;DHT22;244;48.508;9.052;2023-07-20T13:10:52;28.70;1.00
516;DHT22;244;48.508;9.052;2023-07-20T13:13:19;28.80;1.00
516;DHT22;244;48.508;9.052;2023-07-20T13:15:46;28.90;1.00
516;DHT22;244;48.508;9.052;2023-07-20T13:18:13;29.00;1.00
516;DHT22;244;48.508;9.052;2023-07-20T13:20:41;29.20;1.00
516;DHT22;244;48.508;9.052;2023-07-20T13:23:08;29.40;1.00
516;DHT22;244;48.508;9.052;2023-07-20T13:25:36;29.50;1.00
516;DHT22;244;48.508;9.052;2023-07-20T13:28:03;29.60;1.00
516;DHT22;244;48.508;9.052;2023-07-20T13:30:30;29.70;1.00
516;DHT22;244;48.508;9.052;2023-07-20T13:32:57;29.80;1.00
516;DHT22;244;48.508;9.052;2023-07-20T13:35:26;29.90;1.00
516;DHT22;244;48.508;9.052;2023-07-20T13:37:54;30.00;1.00
516;DHT22;244;48.508;9.052;2023-07-20T13:40:21;30.00;1.00
516;DHT22;244;48.508;9.052;2023-07-20T13:42:49;30.20;1.00
516;DHT22;244;48.508;9.052;2023-07-20T13:45:16;30.20;1.00
516;DHT22;244;48.508;9.052;2023-07-20T13:47:43;30.30;1.00
516;DHT22;244;48.508;9.052;2023-07-20T13:50:10;30.40;1.00
516;DHT22;244;48.508;9.052;2023-07-20T13:52:37;30.60;1.00
516;DHT22;244;48.508;9.052;2023-07-20T13:55:05;30.40;1.00
516;DHT22;244;48.508;9.052;2023-07-20T13:57:32;30.40;1.00
516;DHT22;244;48.508;9.052;2023-07-20T13:59:59;30.30;1.00
516;DHT22;244;48.508;9.052;2023-07-20T14:02:27;30.20;1.00
516;DHT22;244;48.508;9.052;2023-07-20T14:04:54;30.30;1.00
516;DHT22;244;48.508;9.052;2023-07-20T14:07:22;30.40;1.00
516;DHT22;244;48.508;9.052;2023-07-20T14:09:49;30.60;1.00
516;DHT22;244;48.508;9.052;2023-07-20T14:12:17;30.70;1.00
516;DHT22;244;48.508;9.052;2023-07-20T14:14:44;30.90;1.00
516;DHT22;244;48.508;9.052;2023-07-20T14:17:11;31.00;1.00
516;DHT22;244;48.508;9.052;2023-07-20T14:19:38;30.90;1.00
516;DHT22;244;48.508;9.052;2023-07-20T14:22:05;30.70;1.00
516;DHT22;244;48.508;9.052;2023-07-20T14:24:32;30.40;1.00
516;DHT22;244;48.508;9.052;2023-07-20T14:26:59;30.60;1.00
516;DHT22;244;48.508;9.052;2023-07-20T14:29:28;30.90;1.00
516;DHT22;244;48.508;9.052;2023-07-20T14:32:02;31.20;1.00
516;DHT22;244;48.508;9.052;2023-07-20T14:34:30;31.60;1.00
516;DHT22;244;48.508;9.052;2023-07-20T14:36:59;31.80;1.00
516;DHT22;244;48.508;9.052;2023-07-20T14:39:26;32.00;1.00
516;DHT22;244;48.508;9.052;2023-07-20T14:41:56;32.10;1.00
516;DHT22;244;48.508;9.052;2023-07-20T14:44:23;32.20;1.00
516;DHT22;244;48.508;9.052;2023-07-20T14:46:51;32.40;1.00
516;DHT22;244;48.508;9.052;2023-07-20T14:49:18;32.50;1.00
516;DHT22;244;48.508;9.052;2023-07-20T14:51:45;32.70;1.00
516;DHT22;244;48.508;9.052;2023-07-20T14:54:12;32.80;1.00
516;DHT22;244;48.508;9.052;2023-07-20T14:56:39;32.80;1.00
516;DHT22;244;48.508;9.052;2023-07-20T14:59:15;32.60;1.00
516;DHT22;244;48.508;9.052;2023-07-20T15:01:43;32.40;1.00
516;DHT22;244;48.508;9.052;2023-07-20T15:04:12;32.20;1.00
516;DHT22;244;48.508;9.052;2023-07-20T15:06:39;32.20;1.00
516;DHT22;244;48.508;9.052;2023-07-20T15:09:06;32.40;1.00
516;DHT22;244;48.508;9.052;2023-07-20T15:11:33;32.70;1.00
516;DHT22;244;48.508;9.052;2023-07-20T15:14:00;32.90;1.00
516;DHT22;244;48.508;9.052;2023-07-20T15:16:27;33.20;1.00
516;DHT22;244;48.508;9.052;2023-07-20T15:18:54;33.40;1.00
516;DHT22;244;48.508;9.052;2023-07-20T15:21:22;33.50;1.00
516;DHT22;244;48.508;9.052;2023-07-20T15:23:50;33.60;1.00
516;DHT22;244;48.508;9.052;2023-07-20T15:26:17;33.70;1.00
516;DHT22;244;48.508;9.052;2023-07-20T15:28:43;33.70;1.00
516;DHT22;244;48.508;9.052;2023-07-20T15:31:10;33.70;1.00
516;DHT22;244;48.508;9.052;2023-07-20T15:33:37;33.60;1.00
516;DHT22;244;48.508;9.052;2023-07-20T15:36:05;33.50;1.00
516;DHT22;244;48.508;9.052;2023-07-20T15:38:33;33.30;1.00
516;DHT22;244;48.508;9.052;2023-07-20T15:41:00;33.20;1.00
516;DHT22;244;48.508;9.052;2023-07-20T15:43:27;33.10;1.00
516;DHT22;244;48.508;9.052;2023-07-20T15:46:02;32.90;1.00
516;DHT22;244;48.508;9.052;2023-07-20T15:48:31;32.70;1.00
516;DHT22;244;48.508;9.052;2023-07-20T15:50:58;32.70;1.00
516;DHT22;244;48.508;9.052;2023-07-20T15:53:25;32.70;1.00
516;DHT22;244;48.508;9.052;2023-07-20T15:56:05;32.60;1.00
516;DHT22;244;48.508;9.052;2023-07-20T15:58:32;32.50;1.00
516;DHT22;244;48.508;9.052;2023-07-20T16:00:59;32.40;1.00
516;DHT22;244;48.508;9.052;2023-07-20T16:03:26;32.40;1.00
516;DHT22;244;48.508;9.052;2023-07-20T16:05:53;32.20;1.00
516;DHT22;244;48.508;9.052;2023-07-20T16:08:20;32.00;1.00
516;DHT22;244;48.508;9.052;2023-07-20T16:10:47;31.80;1.00
516;DHT22;244;48.508;9.052;2023-07-20T16:13:15;31.60;1.00
516;DHT22;244;48.508;9.052;2023-07-20T16:15:42;31.50;1.00
516;DHT22;244;48.508;9.052;2023-07-20T16:18:09;31.40;1.00
516;DHT22;244;48.508;9.052;2023-07-20T16:20:36;31.40;1.00
516;DHT22;244;48.508;9.052;2023-07-20T16:23:02;31.30;1.00
516;DHT22;244;48.508;9.052;2023-07-20T16:25:31;31.20;1.00
516;DHT22;244;48.508;9.052;2023-07-20T16:27:58;31.00;1.00
516;DHT22;244;48.508;9.052;2023-07-20T16:30:29;30.80;1.00
516;DHT22;244;48.508;9.052;2023-07-20T16:32:56;30.50;1.00
516;DHT22;244;48.508;9.052;2023-07-20T16:35:23;30.40;1.00
516;DHT22;244;48.508;9.052;2023-07-20T16:37:50;30.20;1.00
516;DHT22;244;48.508;9.052;2023-07-20T16:40:17;30.00;1.00
516;DHT22;244;48.508;9.052;2023-07-20T16:42:44;29.90;1.00
516;DHT22;244;48.508;9.052;2023-07-20T16:45:11;29.80;1.00
516;DHT22;244;48.508;9.052;2023-07-20T16:47:40;29.70;1.00
516;DHT22;244;48.508;9.052;2023-07-20T16:50:07;29.70;1.00
516;DHT22;244;48.508;9.052;2023-07-20T16:52:34;29.70;1.00
516;DHT22;244;48.508;9.052;2023-07-20T16:55:01;29.50;1.00
516;DHT22;244;48.508;9.052;2023-07-20T16:57:28;29.40;1.00